Time;durP1;ratioP1;P1;durP2;ratioP2;P2;SDS_P1;SDS_P2;PMS_P1;PMS_P2;Temp;Humidity;BMP_temperature;BMP_pressure;BME280_temperature;BME280_humidity;BME280_pressure;Samples;Min_cycle;Max_cycle;Signal;HPM_P1;HPM_P2
2022/01/19 00:01:33;;;;;;;13.00;7.77;;;2.90;99.90;;;;;;5074340;28;20589;-68
2022/01/19 00:03:59;;;;;;;8.03;7.20;;;2.90;99.90;;;;;;5073339;28;20181;-67
2022/01/19 00:06:25;;;;;;;12.33;7.47;;;2.80;99.90;;;;;;5074311;28;20194;-68
2022/01/19 00:08:52;;;;;;;12.03;8.00;;;2.80;99.90;;;;;;5075991;28;20166;-68
2022/01/19 00:11:17;;;;;;;14.87;8.33;;;2.80;99.90;;;;;;5075663;28;20534;-68
2022/01/19 00:13:43;;;;;;;13.03;8.43;;;2.70;99.90;;;;;;5073726;28;20177;-68
2022/01/19 00:16:09;;;;;;;11.93;8.23;;;2.70;99.90;;;;;;5074308;28;20193;-68
2022/01/19 00:18:35;;;;;;;12.37;8.17;;;2.60;99.90;;;;;;5072797;28;20663;-67
2022/01/19 00:21:01;;;;;;;10.10;8.30;;;2.60;99.90;;;;;;5073895;28;20216;-68
2022/01/19 00:23:27;;;;;;;11.17;8.97;;;2.50;99.90;;;;;;5073828;28;20668;-67
2022/01/19 00:25:55;;;;;;;10.07;8.63;;;2.50;99.90;;;;;;5073734;28;20637;-68
2022/01/19 00:28:21;;;;;;;11.50;9.63;;;2.40;99.90;;;;;;5073814;28;20158;-67
2022/01/19 00:30:47;;;;;;;14.30;9.20;;;2.50;99.90;;;;;;5073886;28;20688;-68
2022/01/19 00:33:14;;;;;;;13.80;9.50;;;2.50;99.90;;;;;;5074027;28;20201;-67
2022/01/19 00:35:40;;;;;;;10.93;8.87;;;2.40;99.90;;;;;;5073645;28;20194;-67
2022/01/19 00:38:07;;;;;;;17.47;9.60;;;2.40;99.90;;;;;;5073959;28;20170;-67
2022/01/19 00:40:34;;;;;;;13.93;9.40;;;2.40;99.90;;;;;;5073618;28;20579;-67
2022/01/19 00:43:00;;;;;;;12.73;9.37;;;2.30;99.90;;;;;;5073648;28;20197;-67
2022/01/19 00:45:26;;;;;;;13.53;9.17;;;2.30;99.90;;;;;;5073752;28;20526;-67
2022/01/19 00:47:52;;;;;;;11.53;9.43;;;2.30;99.90;;;;;;5072216;28;20174;-67
2022/01/19 00:50:25;;;;;;;11.60;9.83;;;2.20;99.90;;;;;;5073463;28;20185;-67
2022/01/19 00:52:51;;;;;;;12.80;9.77;;;2.30;99.90;;;;;;5072104;28;20178;-67
2022/01/19 00:55:18;;;;;;;13.43;9.30;;;2.20;99.90;;;;;;5073198;28;20194;-67
2022/01/19 00:57:45;;;;;;;15.33;10.07;;;2.20;99.90;;;;;;5073345;28;20258;-67
2022/01/19 01:00:13;;;;;;;15.20;9.83;;;2.10;99.90;;;;;;5073958;28;20178;-67
2022/01/19 01:02:39;;;;;;;14.17;9.63;;;2.00;99.90;;;;;;5072974;28;20208;-67
2022/01/19 01:05:05;;;;;;;12.87;9.27;;;2.10;99.90;;;;;;5073303;28;20193;-68
2022/01/19 01:07:33;;;;;;;10.93;9.83;;;2.10;99.90;;;;;;5073470;28;20174;-68
2022/01/19 01:10:00;;;;;;;11.33;9.63;;;2.10;99.90;;;;;;5073146;28;20249;-68
2022/01/19 01:12:43;;;;;;;12.87;9.47;;;2.00;99.90;;;;;;5073191;28;20209;-67
2022/01/19 01:15:47;;;;;;;12.83;8.70;;;2.00;99.90;;;;;;5073602;28;20733;-67
2022/01/19 01:18:19;;;;;;;14.53;9.63;;;1.80;99.90;;;;;;5073490;28;20584;-67
2022/01/19 01:20:46;;;;;;;15.20;9.43;;;1.70;99.90;;;;;;5071754;28;20260;-68
2022/01/19 01:23:12;;;;;;;20.63;11.20;;;1.60;99.90;;;;;;5073108;28;20173;-68
2022/01/19 01:25:39;;;;;;;15.00;11.53;;;1.60;99.90;;;;;;5073157;28;20567;-68
2022/01/19 01:28:06;;;;;;;14.77;10.90;;;1.60;99.90;;;;;;5071744;28;20300;-68
2022/01/19 01:30:33;;;;;;;12.10;10.13;;;1.60;99.90;;;;;;5073123;28;20249;-68
2022/01/19 01:32:58;;;;;;;11.87;8.87;;;1.50;99.90;;;;;;5071843;28;20195;-68
2022/01/19 01:35:24;;;;;;;13.60;8.80;;;1.50;99.90;;;;;;5073120;28;20659;-68
2022/01/19 01:37:50;;;;;;;12.30;9.30;;;1.40;99.90;;;;;;5071687;28;20216;-68
2022/01/19 01:40:16;;;;;;;11.33;8.63;;;1.40;99.90;;;;;;5072862;28;20281;-67
2022/01/19 01:42:42;;;;;;;11.80;9.13;;;1.40;99.90;;;;;;5072721;28;20219;-68
2022/01/19 01:45:13;;;;;;;17.57;10.60;;;1.40;99.90;;;;;;5073067;28;20242;-68
2022/01/19 01:47:44;;;;;;;11.70;9.40;;;1.30;99.90;;;;;;5073178;28;20150;-67
2022/01/19 01:55:23;;;;;;;11.77;9.70;;;1.10;99.90;;;;;;5073271;28;20319;-67
2022/01/19 01:57:50;;;;;;;10.33;9.33;;;1.20;99.90;;;;;;5071750;28;20189;-67
2022/01/19 02:00:22;;;;;;;13.00;9.57;;;1.10;99.90;;;;;;5073181;28;20170;-67
2022/01/19 02:02:48;;;;;;;10.70;9.13;;;1.20;99.90;;;;;;5071286;28;20299;-68
2022/01/19 02:05:16;;;;;;;12.03;9.30;;;1.30;99.90;;;;;;5071241;28;20198;-68
2022/01/19 02:08:08;;;;;;;14.03;9.90;;;1.40;99.90;;;;;;5073220;28;20166;-68
2022/01/19 02:16:22;;;;;;;13.97;10.07;;;1.30;99.90;;;;;;5077844;28;20216;-67
2022/01/19 02:24:08;;;;;;;10.90;9.30;;;1.10;99.90;;;;;;5076856;28;20166;-68
2022/01/19 02:26:51;;;;;;;13.33;9.43;;;1.00;99.90;;;;;;5075900;28;20208;-67
2022/01/19 02:42:32;;;;;;;14.10;10.70;;;0.10;99.90;;;;;;5076133;28;20267;-68
2022/01/19 02:50:08;;;;;;;19.67;10.90;;;-0.10;99.90;;;;;;5076556;28;20169;-67
2022/01/19 02:52:34;;;;;;;20.03;10.50;;;-0.20;99.90;;;;;;5074738;28;20177;-67
2022/01/19 02:55:00;;;;;;;13.37;10.23;;;-0.10;99.90;;;;;;5076264;28;20197;-67
2022/01/19 02:57:26;;;;;;;15.50;10.97;;;-0.10;99.90;;;;;;5075847;28;20666;-68
2022/01/19 03:10:38;;;;;;;22.23;12.13;;;0.20;99.90;;;;;;5076016;28;20590;-69
2022/01/19 03:13:04;;;;;;;20.13;12.67;;;0.20;99.90;;;;;;5073971;28;20300;-67
2022/01/19 03:15:30;;;;;;;16.70;12.07;;;0.30;99.90;;;;;;5073786;28;20193;-67
2022/01/19 03:17:59;;;;;;;19.87;12.70;;;0.30;99.90;;;;;;5073900;28;20646;-67
2022/01/19 03:20:26;;;;;;;19.60;12.87;;;0.40;99.90;;;;;;5075422;28;20166;-68
2022/01/19 03:23:03;;;;;;;20.33;13.17;;;0.40;99.90;;;;;;5075490;28;20197;-68
2022/01/19 03:25:29;;;;;;;18.17;13.40;;;0.60;99.90;;;;;;5074990;28;20681;-68
2022/01/19 03:27:55;;;;;;;19.67;13.03;;;0.60;99.90;;;;;;5074999;28;20193;-67
2022/01/19 03:30:22;;;;;;;18.63;12.63;;;0.80;99.90;;;;;;5074906;28;20170;-68
2022/01/19 03:32:48;;;;;;;19.73;12.40;;;0.90;99.90;;;;;;5073644;28;20182;-68
2022/01/19 03:35:15;;;;;;;22.60;12.47;;;1.00;99.90;;;;;;5075018;28;20288;-68
2022/01/19 03:37:41;;;;;;;19.77;12.53;;;1.10;99.90;;;;;;5073519;28;20182;-67
2022/01/19 03:40:09;;;;;;;17.53;13.73;;;1.20;99.90;;;;;;5073362;28;20181;-68
2022/01/19 03:42:35;;;;;;;17.67;13.00;;;1.20;99.90;;;;;;5073424;28;20570;-67
2022/01/19 03:45:02;;;;;;;17.03;12.13;;;1.30;99.90;;;;;;5074484;28;20186;-67
2022/01/19 03:47:28;;;;;;;17.03;12.40;;;1.40;99.90;;;;;;5073326;28;20181;-68
2022/01/19 03:49:54;;;;;;;17.70;12.80;;;1.50;99.90;;;;;;5074971;28;20562;-67
2022/01/19 03:52:19;;;;;;;16.93;12.37;;;1.60;99.90;;;;;;5074530;28;20228;-68
2022/01/19 03:54:45;;;;;;;15.93;12.37;;;1.60;99.90;;;;;;5073166;28;20654;-67
2022/01/19 03:57:12;;;;;;;15.00;11.70;;;1.60;99.90;;;;;;5073132;28;20264;-68
2022/01/19 03:59:39;;;;;;;16.27;11.80;;;1.70;99.90;;;;;;5072953;28;20190;-67
2022/01/19 04:02:05;;;;;;;16.37;11.37;;;1.70;99.90;;;;;;5074485;28;20201;-67
2022/01/19 04:04:43;;;;;;;13.43;11.63;;;1.70;99.90;;;;;;5074318;28;20166;-67
2022/01/19 04:07:09;;;;;;;16.87;11.37;;;1.70;99.90;;;;;;5072971;28;20166;-67
2022/01/19 04:09:40;;;;;;;15.23;10.97;;;1.80;99.90;;;;;;5074651;28;20162;-67
2022/01/19 04:12:08;;;;;;;13.00;11.03;;;1.80;99.90;;;;;;5074380;28;20642;-68
2022/01/19 04:14:35;;;;;;;14.23;10.97;;;1.90;99.90;;;;;;5072800;28;20178;-67
2022/01/19 04:17:04;;;;;;;12.80;11.13;;;1.80;99.90;;;;;;5072577;28;20205;-68
2022/01/19 04:19:34;;;;;;;15.43;11.17;;;1.90;99.90;;;;;;5073949;28;20223;-67
2022/01/19 04:22:02;;;;;;;19.03;11.17;;;1.80;99.90;;;;;;5073870;28;20200;-68
2022/01/19 04:24:29;;;;;;;13.70;9.93;;;1.80;99.90;;;;;;5073913;28;20261;-68
2022/01/19 04:29:42;;;;;;;14.43;10.67;;;1.80;99.90;;;;;;5074075;28;20188;-67
2022/01/19 04:32:15;;;;;;;13.77;10.40;;;1.80;99.90;;;;;;5073885;28;20180;-67
2022/01/19 04:34:50;;;;;;;13.67;11.37;;;1.80;99.90;;;;;;5072043;28;20178;-67
2022/01/19 05:04:22;;;;;;;14.07;11.40;;;1.90;99.90;;;;;;5073776;28;20252;-68
2022/01/19 05:06:53;;;;;;;17.97;12.17;;;1.90;99.90;;;;;;5073597;28;20562;-68
2022/01/19 05:14:38;;;;;;;14.03;11.93;;;2.10;99.90;;;;;;5073413;28;20176;-67
2022/01/19 05:17:04;;;;;;;14.70;12.67;;;2.20;99.90;;;;;;5073303;28;20182;-68
2022/01/19 05:19:29;;;;;;;13.27;11.87;;;2.20;99.90;;;;;;5073306;28;20173;-68
2022/01/19 05:21:55;;;;;;;12.87;11.50;;;2.30;99.90;;;;;;5071769;28;20205;-67
2022/01/19 05:24:21;;;;;;;13.83;11.17;;;2.30;99.90;;;;;;5073172;28;20170;-68
2022/01/19 05:26:50;;;;;;;12.30;11.10;;;2.40;99.90;;;;;;5073091;28;20255;-67
2022/01/19 05:29:16;;;;;;;12.83;11.47;;;2.50;99.90;;;;;;5071867;28;20666;-68
2022/01/19 05:31:42;;;;;;;12.87;11.13;;;2.50;99.90;;;;;;5071862;28;20178;-67
2022/01/19 05:34:07;;;;;;;11.77;10.57;;;2.50;99.90;;;;;;5073445;28;20639;-68
2022/01/19 05:36:33;;;;;;;12.47;11.17;;;2.60;99.90;;;;;;5073402;28;20273;-68
2022/01/19 05:39:03;;;;;;;13.20;11.30;;;2.60;99.90;;;;;;5071753;28;20627;-68
2022/01/19 05:41:29;;;;;;;11.80;10.67;;;2.70;99.90;;;;;;5073302;28;20182;-68
2022/01/19 05:43:55;;;;;;;13.03;11.77;;;2.70;99.90;;;;;;5071874;28;20174;-68
2022/01/19 05:46:21;;;;;;;13.57;12.17;;;2.70;99.90;;;;;;5073230;28;20212;-67
2022/01/19 05:48:47;;;;;;;13.33;11.90;;;2.70;99.90;;;;;;5075633;28;20178;-67
2022/01/19 05:51:13;;;;;;;13.20;11.80;;;2.80;99.90;;;;;;5076962;28;20178;-68
2022/01/19 05:53:38;;;;;;;13.33;12.03;;;2.80;99.90;;;;;;5075643;28;20551;-68
2022/01/19 05:56:04;;;;;;;13.63;12.33;;;2.90;99.90;;;;;;5077036;28;20228;-68
2022/01/19 05:58:30;;;;;;;12.67;11.47;;;2.90;99.90;;;;;;5075429;28;20205;-68
2022/01/19 06:00:56;;;;;;;14.03;11.80;;;3.00;99.90;;;;;;5076899;28;20209;-68
2022/01/19 06:03:22;;;;;;;13.87;12.40;;;3.00;99.90;;;;;;5076934;28;20177;-67
2022/01/19 06:05:47;;;;;;;12.33;11.17;;;3.00;99.90;;;;;;5076289;28;20690;-67
2022/01/19 06:10:54;;;;;;;12.17;11.07;;;3.10;99.90;;;;;;5076953;28;20621;-67
2022/01/19 06:13:21;;;;;;;13.50;12.10;;;3.10;99.90;;;;;;5075035;28;20170;-67
2022/01/19 06:15:48;;;;;;;12.50;11.30;;;3.10;99.90;;;;;;5074941;28;20221;-67
2022/01/19 06:18:15;;;;;;;13.70;12.40;;;3.20;99.90;;;;;;5076199;28;20195;-67
2022/01/19 06:20:41;;;;;;;13.57;12.30;;;3.20;99.90;;;;;;5076358;28;20234;-67
2022/01/19 06:23:07;;;;;;;13.60;12.27;;;3.20;99.90;;;;;;5076153;28;20201;-67
2022/01/19 06:25:35;;;;;;;12.60;11.40;;;3.20;99.90;;;;;;5076072;28;20276;-67
2022/01/19 06:28:01;;;;;;;13.67;12.47;;;3.20;99.90;;;;;;5075893;28;20189;-67
2022/01/19 06:30:27;;;;;;;15.90;13.07;;;3.20;99.90;;;;;;5075975;28;20166;-67
2022/01/19 06:32:53;;;;;;;14.27;12.87;;;3.20;99.90;;;;;;5076270;28;20514;-67
2022/01/19 06:35:19;;;;;;;15.23;13.83;;;3.20;99.90;;;;;;5075842;28;20193;-67
2022/01/19 06:37:45;;;;;;;13.87;12.50;;;3.20;99.90;;;;;;5075866;28;20182;-67
2022/01/19 06:40:14;;;;;;;15.10;13.60;;;3.20;99.90;;;;;;5076256;28;20178;-67
2022/01/19 06:42:41;;;;;;;14.43;13.03;;;3.20;99.90;;;;;;5075710;28;20270;-67
2022/01/19 06:45:08;;;;;;;18.20;13.37;;;3.20;99.90;;;;;;5074588;28;20197;-67
2022/01/19 06:47:35;;;;;;;12.90;11.60;;;3.20;99.90;;;;;;5075962;28;20197;-67
2022/01/19 06:50:03;;;;;;;13.50;12.30;;;3.20;99.90;;;;;;5074569;28;20230;-68
2022/01/19 06:52:28;;;;;;;13.23;12.03;;;3.20;99.90;;;;;;5074611;28;20185;-67
2022/01/19 06:54:54;;;;;;;13.50;12.20;;;3.20;99.90;;;;;;5075674;28;20235;-67
2022/01/19 06:57:20;;;;;;;13.87;12.57;;;3.30;99.90;;;;;;5075435;28;20177;-68
2022/01/19 06:59:48;;;;;;;14.63;13.23;;;3.30;99.90;;;;;;5074345;28;20264;-68
2022/01/19 07:02:14;;;;;;;13.40;12.20;;;3.30;99.90;;;;;;5075845;28;20197;-68
2022/01/19 07:04:47;;;;;;;14.43;13.13;;;3.30;99.90;;;;;;5075391;28;20548;-67
2022/01/19 07:07:12;;;;;;;14.03;12.73;;;3.30;99.90;;;;;;5075311;28;20499;-68
2022/01/19 07:09:38;;;;;;;14.60;13.00;;;3.30;99.90;;;;;;5075453;28;20181;-67
2022/01/19 07:12:04;;;;;;;14.90;13.33;;;3.30;99.90;;;;;;5075487;28;20196;-68
2022/01/19 07:14:30;;;;;;;14.13;12.80;;;3.30;99.90;;;;;;5075288;28;20188;-67
2022/01/19 07:16:56;;;;;;;13.37;11.97;;;3.30;99.90;;;;;;5075167;28;20190;-67
2022/01/19 07:19:21;;;;;;;13.23;11.97;;;3.30;99.90;;;;;;5073860;28;20177;-67
2022/01/19 07:21:47;;;;;;;12.20;11.10;;;3.30;99.90;;;;;;5075173;28;20197;-67
2022/01/19 07:24:14;;;;;;;12.70;11.60;;;3.30;99.90;;;;;;5073843;28;20227;-67
2022/01/19 07:26:40;;;;;;;12.33;11.03;;;3.30;99.90;;;;;;5073619;28;20229;-67
2022/01/19 07:29:06;;;;;;;11.47;10.33;;;3.30;99.90;;;;;;5073787;28;20217;-67
2022/01/19 07:31:32;;;;;;;11.53;10.43;;;3.30;99.90;;;;;;5075032;28;20284;-67
2022/01/19 07:33:57;;;;;;;10.53;9.63;;;3.30;99.90;;;;;;5074946;28;20181;-67
2022/01/19 07:36:23;;;;;;;10.13;9.23;;;3.30;99.90;;;;;;5075214;28;20560;-67
2022/01/19 07:38:49;;;;;;;10.30;9.37;;;3.30;99.90;;;;;;5074913;28;20174;-67
2022/01/19 07:41:15;;;;;;;10.10;9.20;;;3.40;99.90;;;;;;5075060;28;20605;-67
2022/01/19 07:43:41;;;;;;;9.50;8.70;;;3.40;99.90;;;;;;5074788;28;20181;-67
2022/01/19 07:46:06;;;;;;;11.20;9.27;;;3.40;99.90;;;;;;5074826;28;20190;-67
2022/01/19 07:48:32;;;;;;;10.30;9.37;;;3.40;99.90;;;;;;5074706;28;20170;-67
2022/01/19 07:50:58;;;;;;;13.40;9.50;;;3.40;99.90;;;;;;5075224;28;20222;-67
2022/01/19 07:53:24;;;;;;;9.37;8.60;;;3.40;99.90;;;;;;5075252;28;20172;-67
2022/01/19 07:55:50;;;;;;;10.23;9.23;;;3.40;99.90;;;;;;5073270;28;20307;-67
2022/01/19 07:58:16;;;;;;;10.10;8.93;;;3.40;99.90;;;;;;5074555;28;20653;-67
2022/01/19 08:00:42;;;;;;;10.30;9.40;;;3.40;99.90;;;;;;5075101;28;20199;-67
2022/01/19 08:03:09;;;;;;;10.60;9.53;;;3.40;99.90;;;;;;5074633;28;20209;-67
2022/01/19 08:05:35;;;;;;;9.70;8.90;;;3.50;99.90;;;;;;5074450;28;20194;-67
2022/01/19 08:08:02;;;;;;;10.53;9.63;;;3.50;99.90;;;;;;5072799;28;20177;-67
2022/01/19 08:10:29;;;;;;;11.33;10.17;;;3.50;99.90;;;;;;5074083;28;20169;-67
2022/01/19 08:12:56;;;;;;;10.83;9.93;;;3.50;99.90;;;;;;5074510;28;20197;-67
2022/01/19 08:15:22;;;;;;;11.00;9.93;;;3.50;99.90;;;;;;5072805;28;20682;-67
2022/01/19 08:17:48;;;;;;;11.70;10.50;;;3.50;99.90;;;;;;5074412;28;20189;-67
2022/01/19 08:20:14;;;;;;;10.57;9.67;;;3.50;99.90;;;;;;5074110;28;20150;-67
2022/01/19 08:22:40;;;;;;;11.07;10.07;;;3.50;99.90;;;;;;5072661;28;20209;-67
2022/01/19 08:25:05;;;;;;;10.53;9.57;;;3.60;99.90;;;;;;5074450;28;20233;-67
2022/01/19 08:27:31;;;;;;;11.40;10.30;;;3.60;99.90;;;;;;5073787;28;20239;-67
2022/01/19 08:29:57;;;;;;;10.67;9.77;;;3.60;99.90;;;;;;5072728;28;20771;-67
2022/01/19 08:32:23;;;;;;;13.20;10.37;;;3.60;99.90;;;;;;5074265;28;20238;-67
2022/01/19 08:34:49;;;;;;;12.60;11.40;;;3.60;99.90;;;;;;5075221;28;20192;-67
2022/01/19 08:37:15;;;;;;;12.17;11.07;;;3.60;99.90;;;;;;5074584;28;20173;-67
2022/01/19 08:39:45;;;;;;;12.30;11.00;;;3.60;99.90;;;;;;5073067;28;20268;-67
2022/01/19 08:42:11;;;;;;;12.40;11.20;;;3.70;99.90;;;;;;5074128;28;20202;-68
2022/01/19 08:44:38;;;;;;;12.17;11.03;;;3.70;99.90;;;;;;5074300;28;20541;-68
2022/01/19 08:47:05;;;;;;;13.47;12.10;;;3.70;99.90;;;;;;5073770;28;20174;-67
2022/01/19 08:49:31;;;;;;;12.40;11.20;;;3.70;99.90;;;;;;5073973;28;20521;-67
2022/01/19 08:51:57;;;;;;;12.90;11.60;;;3.70;99.90;;;;;;5073918;28;20590;-67
2022/01/19 08:54:24;;;;;;;13.53;12.13;;;3.70;99.90;;;;;;5073577;28;20177;-67
2022/01/19 08:56:49;;;;;;;12.60;11.40;;;3.70;99.90;;;;;;5072183;28;20194;-67
2022/01/19 08:59:15;;;;;;;13.10;11.80;;;3.80;99.90;;;;;;5073819;28;20188;-67
2022/01/19 09:01:41;;;;;;;14.00;12.33;;;3.80;99.90;;;;;;5073427;28;20205;-67
2022/01/19 09:04:07;;;;;;;13.10;11.80;;;3.80;99.90;;;;;;5073411;28;20218;-67
2022/01/19 09:06:32;;;;;;;15.73;11.80;;;3.80;99.90;;;;;;5073376;28;20673;-67
2022/01/19 09:08:58;;;;;;;13.30;12.00;;;3.80;99.90;;;;;;5073388;28;20170;-67
2022/01/19 09:11:24;;;;;;;13.63;12.23;;;3.80;99.90;;;;;;5073639;28;20219;-67
2022/01/19 09:13:50;;;;;;;13.87;12.47;;;3.80;99.90;;;;;;5072057;28;20174;-67
2022/01/19 09:16:16;;;;;;;13.67;12.23;;;3.80;99.90;;;;;;5073567;28;20218;-68
2022/01/19 09:18:42;;;;;;;12.50;11.20;;;3.80;99.90;;;;;;5073442;28;20176;-68
2022/01/19 09:21:08;;;;;;;13.10;11.80;;;3.80;99.90;;;;;;5073130;28;20181;-67
2022/01/19 09:23:35;;;;;;;13.93;11.60;;;3.80;99.90;;;;;;5073568;28;20177;-67
2022/01/19 09:26:02;;;;;;;12.07;10.80;;;3.80;99.90;;;;;;5073002;28;20181;-68
2022/01/19 09:28:28;;;;;;;13.53;12.20;;;3.80;99.90;;;;;;5073598;28;20237;-67
2022/01/19 09:30:54;;;;;;;14.17;12.37;;;3.80;99.90;;;;;;5071937;28;20205;-68
2022/01/19 09:33:20;;;;;;;12.37;11.27;;;3.80;99.90;;;;;;5073183;28;20578;-67
2022/01/19 09:35:53;;;;;;;12.93;11.67;;;3.80;99.90;;;;;;5072944;28;20182;-67
2022/01/19 09:38:23;;;;;;;13.00;11.70;;;3.90;99.90;;;;;;5073375;28;20146;-67
2022/01/19 09:40:49;;;;;;;14.50;12.83;;;3.90;99.90;;;;;;5073027;28;20257;-67
2022/01/19 09:43:17;;;;;;;12.73;11.43;;;3.90;99.90;;;;;;5072910;28;20280;-67
2022/01/19 09:45:43;;;;;;;14.00;12.53;;;3.90;99.90;;;;;;5072958;28;20661;-67
2022/01/19 09:48:09;;;;;;;13.57;11.53;;;3.90;99.90;;;;;;5072983;28;20257;-67
2022/01/19 09:50:35;;;;;;;13.07;11.70;;;3.90;99.90;;;;;;5073233;28;20198;-67
2022/01/19 09:53:07;;;;;;;13.83;12.00;;;3.90;99.90;;;;;;5071590;28;20189;-67
2022/01/19 09:55:34;;;;;;;14.17;12.77;;;3.80;99.90;;;;;;5071608;28;20205;-67
2022/01/19 09:58:00;;;;;;;15.27;13.63;;;3.80;99.90;;;;;;5073468;28;20196;-67
2022/01/19 10:00:26;;;;;;;15.20;13.70;;;3.80;99.90;;;;;;5073186;28;20599;-67
2022/01/19 10:03:13;;;;;;;17.20;14.70;;;3.80;99.90;;;;;;5072810;28;20685;-67
2022/01/19 10:06:07;;;;;;;16.60;14.80;;;3.80;99.90;;;;;;5072745;28;20258;-67
2022/01/19 10:08:39;;;;;;;17.17;15.37;;;3.80;99.90;;;;;;5072064;28;20654;-67
2022/01/19 10:11:09;;;;;;;18.70;14.10;;;3.80;99.90;;;;;;5071804;28;20610;-67
2022/01/19 10:19:16;;;;;;;18.77;15.63;;;3.80;99.90;;;;;;5073255;28;20713;-67
2022/01/19 10:22:02;;;;;;;16.33;14.63;;;3.80;99.90;;;;;;5071284;28;20197;-67
2022/01/19 10:24:36;;;;;;;17.60;13.93;;;3.70;99.90;;;;;;5072678;28;20180;-67
2022/01/19 10:27:26;;;;;;;17.13;15.30;;;3.70;99.90;;;;;;5072314;28;20219;-67
2022/01/19 10:29:56;;;;;;;18.60;15.73;;;3.70;99.90;;;;;;5071270;28;20184;-67
2022/01/19 10:32:24;;;;;;;17.70;15.00;;;3.70;99.90;;;;;;5072763;28;20173;-67
2022/01/19 10:34:51;;;;;;;21.60;16.77;;;3.70;99.90;;;;;;5076330;28;20180;-67
2022/01/19 10:37:26;;;;;;;20.67;15.73;;;3.70;99.90;;;;;;5076734;28;20241;-67
2022/01/19 10:39:54;;;;;;;20.93;16.97;;;3.70;99.90;;;;;;5075451;28;20180;-65
2022/01/19 10:42:29;;;;;;;25.70;19.03;;;3.70;99.90;;;;;;5074715;28;20800;-64
2022/01/19 10:45:00;;;;;;;25.30;20.50;;;3.60;99.90;;;;;;5075907;28;20212;-64
2022/01/19 10:47:42;;;;;;;29.77;21.13;;;3.70;99.90;;;;;;5075961;28;20150;-64
2022/01/19 10:50:28;;;;;;;30.87;22.20;;;3.60;99.90;;;;;;5074928;28;20178;-64
2022/01/19 10:52:57;;;;;;;30.27;21.27;;;3.60;99.90;;;;;;5075858;28;20162;-64
2022/01/19 10:55:22;;;;;;;26.00;20.00;;;3.60;99.90;;;;;;5074504;28;20201;-64
2022/01/19 10:57:50;;;;;;;27.90;21.07;;;3.50;99.90;;;;;;5076408;28;20182;-65
2022/01/19 11:00:18;;;;;;;28.80;19.93;;;3.60;99.90;;;;;;5074832;28;20200;-67
2022/01/19 11:02:44;;;;;;;25.87;20.10;;;3.60;99.90;;;;;;5076448;28;20258;-67
2022/01/19 11:05:11;;;;;;;26.27;19.23;;;3.60;99.90;;;;;;5075532;28;20724;-67
2022/01/19 11:07:37;;;;;;;28.40;20.50;;;3.60;99.90;;;;;;5075645;28;20170;-67
2022/01/19 11:10:18;;;;;;;25.40;18.97;;;3.60;99.90;;;;;;5075024;28;20573;-67
2022/01/19 11:12:49;;;;;;;23.67;18.30;;;3.60;99.90;;;;;;5074246;28;20192;-67
2022/01/19 11:15:20;;;;;;;27.33;19.57;;;3.60;99.90;;;;;;5074187;28;20202;-67
2022/01/19 11:17:47;;;;;;;24.27;18.90;;;3.60;99.90;;;;;;5075418;28;20188;-67
2022/01/19 11:20:20;;;;;;;25.97;19.13;;;3.60;99.90;;;;;;5075395;28;20174;-67
2022/01/19 11:23:24;;;;;;;26.43;18.30;;;3.60;99.90;;;;;;5075823;28;20561;-67
2022/01/19 11:25:58;;;;;;;23.33;18.17;;;3.70;99.90;;;;;;5072588;28;20201;-68
2022/01/19 11:28:42;;;;;;;25.13;18.40;;;3.70;99.90;;;;;;5073948;28;20174;-67
2022/01/19 11:31:16;;;;;;;24.43;18.47;;;3.70;99.90;;;;;;5073817;28;20261;-67
2022/01/19 11:33:55;;;;;;;25.73;18.40;;;3.70;99.90;;;;;;5075352;28;20155;-67
2022/01/19 11:36:33;;;;;;;24.53;18.13;;;3.80;99.90;;;;;;5075179;28;20550;-67
2022/01/19 11:39:21;;;;;;;23.57;17.83;;;3.80;99.90;;;;;;5073691;28;20542;-67
2022/01/19 11:41:54;;;;;;;21.93;17.23;;;3.80;99.90;;;;;;5074736;28;20225;-67
2022/01/19 11:44:38;;;;;;;22.23;17.17;;;3.80;99.90;;;;;;5074281;28;20163;-67
2022/01/19 11:47:09;;;;;;;20.60;16.80;;;3.80;99.90;;;;;;5074729;28;20194;-67
2022/01/19 11:50:04;;;;;;;19.83;16.57;;;3.80;99.90;;;;;;5074696;28;20174;-67
2022/01/19 11:52:38;;;;;;;22.03;16.70;;;3.80;99.90;;;;;;5074918;28;20227;-67
2022/01/19 11:55:34;;;;;;;23.93;17.43;;;3.90;99.90;;;;;;5073314;28;20196;-67
2022/01/19 11:58:20;;;;;;;22.03;17.07;;;3.90;99.90;;;;;;5073969;28;20196;-67
2022/01/19 12:00:49;;;;;;;23.73;17.50;;;3.90;99.90;;;;;;5074789;28;20154;-67
2022/01/19 12:03:31;;;;;;;23.93;17.47;;;3.90;99.90;;;;;;5074386;28;20221;-67
2022/01/19 12:05:57;;;;;;;23.73;16.87;;;4.00;99.90;;;;;;5074678;28;20193;-65
2022/01/19 12:08:29;;;;;;;23.43;17.63;;;4.00;99.90;;;;;;5074411;28;20174;-65
2022/01/19 12:11:13;;;;;;;23.03;17.10;;;4.00;99.90;;;;;;5073019;28;20184;-65
2022/01/19 12:19:06;;;;;;;21.13;16.50;;;4.00;99.90;;;;;;5074219;28;20157;-65
2022/01/19 12:21:35;;;;;;;27.90;18.73;;;4.00;99.90;;;;;;5074210;28;20197;-65
2022/01/19 12:24:15;;;;;;;25.67;16.73;;;4.00;99.90;;;;;;5074020;28;20181;-65
2022/01/19 12:27:13;;;;;;;24.47;18.43;;;4.00;99.90;;;;;;5074058;28;20241;-65
2022/01/19 12:29:50;;;;;;;23.20;17.30;;;4.00;99.90;;;;;;5073349;28;20196;-65
2022/01/19 12:32:16;;;;;;;25.33;18.07;;;3.90;99.90;;;;;;5072634;28;20650;-65
2022/01/19 12:34:58;;;;;;;21.80;17.60;;;4.00;99.90;;;;;;5072668;28;20182;-67
2022/01/19 12:37:27;;;;;;;24.90;17.37;;;4.00;99.90;;;;;;5073921;28;20177;-65
2022/01/19 12:39:54;;;;;;;25.50;17.07;;;4.00;99.90;;;;;;5072550;28;20626;-64
2022/01/19 12:42:27;;;;;;;28.90;18.67;;;4.00;99.90;;;;;;5073230;28;20674;-65
2022/01/19 12:44:56;;;;;;;24.23;18.33;;;3.90;99.90;;;;;;5074033;28;20154;-65
2022/01/19 12:47:25;;;;;;;27.63;18.10;;;3.90;99.90;;;;;;5073584;28;20257;-65
2022/01/19 12:49:52;;;;;;;22.13;16.97;;;4.00;99.90;;;;;;5072292;28;20181;-65
2022/01/19 12:52:19;;;;;;;21.43;17.03;;;4.00;99.90;;;;;;5073610;28;20192;-65
2022/01/19 12:54:46;;;;;;;23.13;17.70;;;3.90;99.90;;;;;;5071956;28;20205;-65
2022/01/19 12:57:15;;;;;;;24.73;17.73;;;4.00;99.90;;;;;;5073794;28;20657;-65
2022/01/19 12:59:43;;;;;;;26.47;18.47;;;3.90;99.90;;;;;;5074077;28;20658;-64
2022/01/19 13:02:12;;;;;;;22.30;16.63;;;3.90;99.90;;;;;;5072175;28;20588;-65
2022/01/19 13:04:39;;;;;;;21.57;16.97;;;3.90;99.90;;;;;;5072164;28;20227;-64
2022/01/19 13:07:34;;;;;;;26.40;18.37;;;3.90;99.90;;;;;;5072081;28;20202;-65
2022/01/19 13:13:09;;;;;;;28.10;19.37;;;3.90;99.90;;;;;;5073841;28;20168;-65
2022/01/19 13:15:47;;;;;;;24.30;17.77;;;3.90;99.90;;;;;;5074065;28;20206;-64
2022/01/19 13:18:18;;;;;;;22.13;16.87;;;3.90;99.90;;;;;;5073780;28;20158;-64
2022/01/19 13:20:54;;;;;;;25.27;18.30;;;3.90;99.90;;;;;;5072363;28;20192;-64
2022/01/19 13:23:21;;;;;;;23.83;18.57;;;3.90;99.90;;;;;;5072118;28;20212;-64
2022/01/19 13:26:07;;;;;;;25.30;17.93;;;4.00;99.90;;;;;;5072938;28;20247;-65
2022/01/19 13:28:35;;;;;;;24.60;17.80;;;3.90;99.90;;;;;;5071891;28;20181;-64
2022/01/19 13:31:17;;;;;;;25.27;18.53;;;4.00;99.90;;;;;;5073375;28;20170;-64
2022/01/19 13:34:01;;;;;;;25.40;18.40;;;3.90;99.90;;;;;;5071869;28;20668;-64
2022/01/19 13:36:29;;;;;;;28.50;19.50;;;4.00;99.90;;;;;;5073084;28;20208;-64
2022/01/19 13:38:55;;;;;;;22.70;17.27;;;3.90;99.90;;;;;;5073157;28;20213;-64
2022/01/19 13:41:22;;;;;;;26.13;18.40;;;3.90;99.90;;;;;;5073187;28;20209;-64
2022/01/19 13:43:49;;;;;;;22.47;17.73;;;3.90;99.90;;;;;;5073165;28;20189;-65
2022/01/19 13:46:28;;;;;;;25.47;17.80;;;4.00;99.90;;;;;;5071606;28;20286;-65
2022/01/19 13:48:59;;;;;;;27.43;18.13;;;3.90;99.90;;;;;;5073022;28;20162;-65
2022/01/19 13:51:26;;;;;;;22.00;17.57;;;3.90;99.90;;;;;;5073340;28;20182;-65
2022/01/19 13:53:54;;;;;;;24.13;17.60;;;3.90;99.90;;;;;;5073199;28;20182;-64
2022/01/19 13:56:55;;;;;;;30.83;21.77;;;3.90;99.90;;;;;;5073131;28;20194;-65
2022/01/19 13:59:23;;;;;;;28.17;19.87;;;3.90;99.90;;;;;;5073023;28;20165;-64
2022/01/19 14:04:19;;;;;;;25.90;19.77;;;3.90;99.90;;;;;;5073425;28;20649;-64
2022/01/19 14:06:48;;;;;;;28.90;20.37;;;3.90;99.90;;;;;;5073145;28;20217;-64
2022/01/19 14:09:17;;;;;;;25.80;19.50;;;3.90;99.90;;;;;;5076965;28;20178;-64
2022/01/19 14:11:56;;;;;;;27.20;18.97;;;4.00;99.90;;;;;;5076765;28;20232;-65
2022/01/19 14:14:25;;;;;;;25.47;18.77;;;4.00;99.90;;;;;;5076929;28;20244;-65
2022/01/19 14:16:53;;;;;;;24.87;17.87;;;4.00;99.90;;;;;;5077154;28;20200;-65
2022/01/19 14:19:23;;;;;;;30.07;19.13;;;4.00;99.90;;;;;;5077508;28;20178;-65
2022/01/19 14:21:54;;;;;;;24.97;17.17;;;4.00;99.90;;;;;;5077595;28;20273;-65
2022/01/19 14:24:20;;;;;;;24.07;16.63;;;4.00;99.90;;;;;;5078486;28;20170;-65
2022/01/19 14:26:59;;;;;;;26.07;18.13;;;4.00;99.90;;;;;;5078122;28;20214;-64
2022/01/19 14:29:26;;;;;;;24.50;18.50;;;4.00;99.90;;;;;;5076720;28;20543;-65